sensor_id;sensor_type;location;lat;lon;timestamp;P1;durP1;ratioP1;P2;durP2;ratioP2
39772;SDS011;25451;51.960;6.250;2023-04-07T00:00:47;10.20;;;6.18;;
39772;SDS011;25451;51.960;6.250;2023-04-07T00:03:12;8.60;;;5.68;;
39772;SDS011;25451;51.960;6.250;2023-04-07T00:05:38;8.40;;;5.33;;
39772;SDS011;25451;51.960;6.250;2023-04-07T00:08:03;10.93;;;6.07;;
39772;SDS011;25451;51.960;6.250;2023-04-07T00:10:28;10.67;;;6.23;;
39772;SDS011;25451;51.960;6.250;2023-04-07T00:12:54;10.67;;;6.13;;
39772;SDS011;25451;51.960;6.250;2023-04-07T00:15:19;10.55;;;6.30;;
39772;SDS011;25451;51.960;6.250;2023-04-07T00:17:45;9.17;;;6.07;;
39772;SDS011;25451;51.960;6.250;2023-04-07T00:20:10;10.10;;;6.10;;
39772;SDS011;25451;51.960;6.250;2023-04-07T00:22:36;10.25;;;6.32;;
39772;SDS011;25451;51.960;6.250;2023-04-07T00:25:01;11.37;;;5.63;;
39772;SDS011;25451;51.960;6.250;2023-04-07T00:27:27;9.53;;;5.97;;
39772;SDS011;25451;51.960;6.250;2023-04-07T00:29:52;10.23;;;6.30;;
39772;SDS011;25451;51.960;6.250;2023-04-07T00:32:19;9.75;;;6.15;;
39772;SDS011;25451;51.960;6.250;2023-04-07T00:34:45;13.00;;;6.93;;
39772;SDS011;25451;51.960;6.250;2023-04-07T00:37:10;12.53;;;6.73;;
39772;SDS011;25451;51.960;6.250;2023-04-07T00:39:36;11.73;;;7.00;;
39772;SDS011;25451;51.960;6.250;2023-04-07T00:42:02;9.93;;;6.47;;
39772;SDS011;25451;51.960;6.250;2023-04-07T00:44:28;13.30;;;6.53;;
39772;SDS011;25451;51.960;6.250;2023-04-07T00:46:53;12.93;;;6.87;;
39772;SDS011;25451;51.960;6.250;2023-04-07T00:49:19;11.10;;;6.60;;
39772;SDS011;25451;51.960;6.250;2023-04-07T00:51:44;12.23;;;7.40;;
39772;SDS011;25451;51.960;6.250;2023-04-07T00:54:10;13.93;;;7.80;;
39772;SDS011;25451;51.960;6.250;2023-04-07T00:56:36;13.50;;;7.30;;
39772;SDS011;25451;51.960;6.250;2023-04-07T00:59:02;15.73;;;7.97;;
39772;SDS011;25451;51.960;6.250;2023-04-07T01:01:34;16.05;;;8.10;;
39772;SDS011;25451;51.960;6.250;2023-04-07T01:04:11;18.10;;;9.23;;
39772;SDS011;25451;51.960;6.250;2023-04-07T01:06:45;20.17;;;9.93;;
39772;SDS011;25451;51.960;6.250;2023-04-07T01:09:22;17.57;;;8.83;;
39772;SDS011;25451;51.960;6.250;2023-04-07T01:12:11;19.88;;;9.88;;
39772;SDS011;25451;51.960;6.250;2023-04-07T01:14:45;16.77;;;8.70;;
39772;SDS011;25451;51.960;6.250;2023-04-07T01:17:14;20.02;;;9.18;;
39772;SDS011;25451;51.960;6.250;2023-04-07T01:22:15;22.00;;;10.33;;
39772;SDS011;25451;51.960;6.250;2023-04-07T01:30:33;19.77;;;9.85;;
39772;SDS011;25451;51.960;6.250;2023-04-07T01:33:02;20.27;;;10.52;;
39772;SDS011;25451;51.960;6.250;2023-04-07T01:35:31;21.37;;;10.40;;
39772;SDS011;25451;51.960;6.250;2023-04-07T01:37:58;20.98;;;10.20;;
39772;SDS011;25451;51.960;6.250;2023-04-07T01:40:24;22.05;;;10.50;;
39772;SDS011;25451;51.960;6.250;2023-04-07T01:42:52;21.20;;;10.25;;
39772;SDS011;25451;51.960;6.250;2023-04-07T01:45:18;22.30;;;10.35;;
39772;SDS011;25451;51.960;6.250;2023-04-07T01:47:44;21.40;;;10.30;;
39772;SDS011;25451;51.960;6.250;2023-04-07T01:50:11;22.67;;;10.80;;
39772;SDS011;25451;51.960;6.250;2023-04-07T01:52:37;21.35;;;10.32;;
39772;SDS011;25451;51.960;6.250;2023-04-07T01:55:04;23.30;;;10.57;;
39772;SDS011;25451;51.960;6.250;2023-04-07T01:57:30;22.43;;;10.00;;
39772;SDS011;25451;51.960;6.250;2023-04-07T01:59:56;21.90;;;10.30;;
39772;SDS011;25451;51.960;6.250;2023-04-07T02:02:21;22.93;;;10.57;;
39772;SDS011;25451;51.960;6.250;2023-04-07T02:04:48;21.07;;;9.80;;
39772;SDS011;25451;51.960;6.250;2023-04-07T02:07:25;21.92;;;10.30;;
39772;SDS011;25451;51.960;6.250;2023-04-07T02:09:55;22.10;;;10.13;;
39772;SDS011;25451;51.960;6.250;2023-04-07T02:12:22;20.42;;;9.77;;
39772;SDS011;25451;51.960;6.250;2023-04-07T02:14:51;21.00;;;9.07;;
39772;SDS011;25451;51.960;6.250;2023-04-07T02:17:18;16.23;;;7.63;;
39772;SDS011;25451;51.960;6.250;2023-04-07T02:19:43;14.63;;;6.40;;
39772;SDS011;25451;51.960;6.250;2023-04-07T02:22:10;13.93;;;5.90;;
39772;SDS011;25451;51.960;6.250;2023-04-07T02:24:40;9.85;;;4.22;;
39772;SDS011;25451;51.960;6.250;2023-04-07T02:27:06;8.13;;;3.03;;
39772;SDS011;25451;51.960;6.250;2023-04-07T02:29:31;6.30;;;3.20;;
39772;SDS011;25451;51.960;6.250;2023-04-07T02:31:57;9.43;;;3.73;;
39772;SDS011;25451;51.960;6.250;2023-04-07T02:34:22;7.53;;;3.40;;
39772;SDS011;25451;51.960;6.250;2023-04-07T02:36:47;7.03;;;3.10;;
39772;SDS011;25451;51.960;6.250;2023-04-07T02:39:12;9.30;;;3.40;;
39772;SDS011;25451;51.960;6.250;2023-04-07T02:41:38;6.43;;;3.50;;
39772;SDS011;25451;51.960;6.250;2023-04-07T02:44:03;9.00;;;3.33;;
39772;SDS011;25451;51.960;6.250;2023-04-07T02:46:28;7.27;;;3.20;;
39772;SDS011;25451;51.960;6.250;2023-04-07T02:48:54;9.67;;;3.50;;
39772;SDS011;25451;51.960;6.250;2023-04-07T02:51:19;7.33;;;3.20;;
39772;SDS011;25451;51.960;6.250;2023-04-07T02:53:44;9.02;;;3.38;;
39772;SDS011;25451;51.960;6.250;2023-04-07T02:56:10;10.02;;;3.35;;
39772;SDS011;25451;51.960;6.250;2023-04-07T02:58:35;7.03;;;3.22;;
39772;SDS011;25451;51.960;6.250;2023-04-07T03:01:00;7.70;;;3.20;;
39772;SDS011;25451;51.960;6.250;2023-04-07T03:03:26;9.53;;;3.30;;
39772;SDS011;25451;51.960;6.250;2023-04-07T03:05:51;8.33;;;3.13;;
39772;SDS011;25451;51.960;6.250;2023-04-07T03:08:16;8.13;;;3.00;;
39772;SDS011;25451;51.960;6.250;2023-04-07T03:10:41;9.63;;;3.47;;
39772;SDS011;25451;51.960;6.250;2023-04-07T03:13:07;8.95;;;3.50;;
39772;SDS011;25451;51.960;6.250;2023-04-07T03:15:33;9.50;;;3.80;;
39772;SDS011;25451;51.960;6.250;2023-04-07T03:17:58;9.23;;;3.57;;
39772;SDS011;25451;51.960;6.250;2023-04-07T03:20:24;7.97;;;3.13;;
39772;SDS011;25451;51.960;6.250;2023-04-07T03:22:49;8.52;;;3.53;;
39772;SDS011;25451;51.960;6.250;2023-04-07T03:25:14;8.47;;;3.30;;
39772;SDS011;25451;51.960;6.250;2023-04-07T03:27:40;9.30;;;3.80;;
39772;SDS011;25451;51.960;6.250;2023-04-07T03:30:06;8.37;;;3.20;;
39772;SDS011;25451;51.960;6.250;2023-04-07T03:32:32;8.68;;;3.50;;
39772;SDS011;25451;51.960;6.250;2023-04-07T03:34:57;8.73;;;3.43;;
39772;SDS011;25451;51.960;6.250;2023-04-07T03:37:23;11.50;;;3.37;;
39772;SDS011;25451;51.960;6.250;2023-04-07T03:39:48;7.77;;;3.20;;
39772;SDS011;25451;51.960;6.250;2023-04-07T03:42:13;8.13;;;3.20;;
39772;SDS011;25451;51.960;6.250;2023-04-07T03:44:39;8.25;;;3.15;;
39772;SDS011;25451;51.960;6.250;2023-04-07T03:47:04;7.27;;;3.27;;
39772;SDS011;25451;51.960;6.250;2023-04-07T03:49:30;8.90;;;3.83;;
39772;SDS011;25451;51.960;6.250;2023-04-07T03:51:55;8.67;;;3.37;;
39772;SDS011;25451;51.960;6.250;2023-04-07T03:54:21;9.60;;;3.70;;
39772;SDS011;25451;51.960;6.250;2023-04-07T03:56:47;10.43;;;3.70;;
39772;SDS011;25451;51.960;6.250;2023-04-07T03:59:12;10.00;;;3.90;;
39772;SDS011;25451;51.960;6.250;2023-04-07T04:01:37;9.63;;;3.60;;
39772;SDS011;25451;51.960;6.250;2023-04-07T04:04:03;14.00;;;4.73;;
39772;SDS011;25451;51.960;6.250;2023-04-07T04:06:28;11.37;;;3.93;;
39772;SDS011;25451;51.960;6.250;2023-04-07T04:08:53;8.77;;;3.83;;
39772;SDS011;25451;51.960;6.250;2023-04-07T04:11:19;11.93;;;4.03;;
39772;SDS011;25451;51.960;6.250;2023-04-07T04:13:46;10.05;;;4.15;;
39772;SDS011;25451;51.960;6.250;2023-04-07T04:16:11;13.33;;;4.67;;
39772;SDS011;25451;51.960;6.250;2023-04-07T04:18:36;8.83;;;4.10;;
39772;SDS011;25451;51.960;6.250;2023-04-07T04:21:01;8.60;;;3.90;;
39772;SDS011;25451;51.960;6.250;2023-04-07T04:23:27;11.27;;;4.33;;
39772;SDS011;25451;51.960;6.250;2023-04-07T04:25:52;8.40;;;4.10;;
39772;SDS011;25451;51.960;6.250;2023-04-07T04:28:17;13.25;;;3.85;;
39772;SDS011;25451;51.960;6.250;2023-04-07T04:30:43;8.50;;;3.70;;
39772;SDS011;25451;51.960;6.250;2023-04-07T04:33:08;10.53;;;4.10;;
39772;SDS011;25451;51.960;6.250;2023-04-07T04:35:33;10.60;;;4.10;;
39772;SDS011;25451;51.960;6.250;2023-04-07T04:37:59;9.70;;;4.40;;
39772;SDS011;25451;51.960;6.250;2023-04-07T04:40:24;12.67;;;4.43;;
39772;SDS011;25451;51.960;6.250;2023-04-07T04:42:49;9.63;;;4.03;;
39772;SDS011;25451;51.960;6.250;2023-04-07T04:45:15;10.57;;;4.32;;
39772;SDS011;25451;51.960;6.250;2023-04-07T04:47:40;10.60;;;4.40;;
39772;SDS011;25451;51.960;6.250;2023-04-07T04:50:08;9.40;;;4.07;;
39772;SDS011;25451;51.960;6.250;2023-04-07T04:52:34;12.07;;;4.30;;
39772;SDS011;25451;51.960;6.250;2023-04-07T04:54:59;12.50;;;3.97;;
39772;SDS011;25451;51.960;6.250;2023-04-07T04:57:25;9.55;;;3.95;;
39772;SDS011;25451;51.960;6.250;2023-04-07T04:59:50;8.77;;;3.77;;
39772;SDS011;25451;51.960;6.250;2023-04-07T05:02:15;10.17;;;3.87;;
39772;SDS011;25451;51.960;6.250;2023-04-07T05:04:41;8.73;;;3.60;;
39772;SDS011;25451;51.960;6.250;2023-04-07T05:07:06;8.60;;;3.70;;
39772;SDS011;25451;51.960;6.250;2023-04-07T05:09:31;9.43;;;3.60;;
39772;SDS011;25451;51.960;6.250;2023-04-07T05:11:56;7.80;;;3.60;;
39772;SDS011;25451;51.960;6.250;2023-04-07T05:14:22;11.05;;;4.03;;
39772;SDS011;25451;51.960;6.250;2023-04-07T05:16:47;9.57;;;3.53;;
39772;SDS011;25451;51.960;6.250;2023-04-07T05:19:12;8.13;;;3.47;;
39772;SDS011;25451;51.960;6.250;2023-04-07T05:21:38;11.33;;;3.60;;
39772;SDS011;25451;51.960;6.250;2023-04-07T05:24:03;15.07;;;3.93;;
39772;SDS011;25451;51.960;6.250;2023-04-07T05:26:28;8.20;;;3.43;;
39772;SDS011;25451;51.960;6.250;2023-04-07T05:28:54;8.23;;;3.80;;
39772;SDS011;25451;51.960;6.250;2023-04-07T05:31:19;9.97;;;3.50;;
39772;SDS011;25451;51.960;6.250;2023-04-07T05:33:44;7.85;;;3.30;;
39772;SDS011;25451;51.960;6.250;2023-04-07T05:36:10;5.87;;;2.90;;
39772;SDS011;25451;51.960;6.250;2023-04-07T05:38:35;8.47;;;3.30;;
39772;SDS011;25451;51.960;6.250;2023-04-07T05:41:00;9.23;;;3.50;;
39772;SDS011;25451;51.960;6.250;2023-04-07T05:43:26;10.23;;;3.53;;
39772;SDS011;25451;51.960;6.250;2023-04-07T05:45:51;9.57;;;3.60;;
39772;SDS011;25451;51.960;6.250;2023-04-07T05:48:16;9.33;;;3.80;;
39772;SDS011;25451;51.960;6.250;2023-04-07T05:50:42;9.00;;;3.73;;
39772;SDS011;25451;51.960;6.250;2023-04-07T05:53:07;8.07;;;3.45;;
39772;SDS011;25451;51.960;6.250;2023-04-07T05:55:33;10.97;;;3.50;;
39772;SDS011;25451;51.960;6.250;2023-04-07T05:57:58;8.93;;;3.93;;
39772;SDS011;25451;51.960;6.250;2023-04-07T06:00:23;8.07;;;3.60;;
39772;SDS011;25451;51.960;6.250;2023-04-07T06:02:49;7.73;;;3.57;;
39772;SDS011;25451;51.960;6.250;2023-04-07T06:05:14;9.40;;;3.55;;
39772;SDS011;25451;51.960;6.250;2023-04-07T06:07:40;9.53;;;3.50;;
39772;SDS011;25451;51.960;6.250;2023-04-07T06:10:05;8.13;;;3.27;;
39772;SDS011;25451;51.960;6.250;2023-04-07T06:12:31;11.18;;;3.88;;
39772;SDS011;25451;51.960;6.250;2023-04-07T06:14:58;10.32;;;4.05;;
39772;SDS011;25451;51.960;6.250;2023-04-07T06:17:23;9.07;;;3.63;;
39772;SDS011;25451;51.960;6.250;2023-04-07T06:19:48;9.90;;;3.57;;
39772;SDS011;25451;51.960;6.250;2023-04-07T06:22:14;10.10;;;3.90;;
39772;SDS011;25451;51.960;6.250;2023-04-07T06:24:39;9.13;;;3.77;;
39772;SDS011;25451;51.960;6.250;2023-04-07T06:27:05;11.60;;;4.13;;
39772;SDS011;25451;51.960;6.250;2023-04-07T06:29:31;13.77;;;4.20;;
39772;SDS011;25451;51.960;6.250;2023-04-07T06:31:57;9.55;;;4.13;;
39772;SDS011;25451;51.960;6.250;2023-04-07T06:34:22;16.87;;;4.30;;
39772;SDS011;25451;51.960;6.250;2023-04-07T06:36:47;10.20;;;4.20;;
39772;SDS011;25451;51.960;6.250;2023-04-07T06:39:13;13.43;;;4.00;;
39772;SDS011;25451;51.960;6.250;2023-04-07T06:41:38;12.03;;;4.50;;
39772;SDS011;25451;51.960;6.250;2023-04-07T06:44:07;10.45;;;3.90;;
39772;SDS011;25451;51.960;6.250;2023-04-07T06:46:33;12.20;;;4.28;;
39772;SDS011;25451;51.960;6.250;2023-04-07T06:48:58;12.30;;;4.23;;
39772;SDS011;25451;51.960;6.250;2023-04-07T06:51:24;9.33;;;4.17;;
39772;SDS011;25451;51.960;6.250;2023-04-07T06:53:50;10.35;;;4.25;;
39772;SDS011;25451;51.960;6.250;2023-04-07T06:56:15;12.00;;;4.57;;
39772;SDS011;25451;51.960;6.250;2023-04-07T06:58:41;12.20;;;4.27;;
39772;SDS011;25451;51.960;6.250;2023-04-07T07:01:06;14.23;;;4.22;;
39772;SDS011;25451;51.960;6.250;2023-04-07T07:03:32;11.63;;;4.00;;
39772;SDS011;25451;51.960;6.250;2023-04-07T07:05:58;13.13;;;4.70;;
39772;SDS011;25451;51.960;6.250;2023-04-07T07:08:24;10.98;;;4.57;;
39772;SDS011;25451;51.960;6.250;2023-04-07T07:10:50;13.57;;;4.95;;
39772;SDS011;25451;51.960;6.250;2023-04-07T07:13:17;16.48;;;4.82;;
39772;SDS011;25451;51.960;6.250;2023-04-07T07:15:47;10.15;;;4.40;;
39772;SDS011;25451;51.960;6.250;2023-04-07T07:18:12;12.95;;;4.55;;
39772;SDS011;25451;51.960;6.250;2023-04-07T07:20:38;9.80;;;4.30;;
39772;SDS011;25451;51.960;6.250;2023-04-07T07:23:03;12.43;;;4.30;;
39772;SDS011;25451;51.960;6.250;2023-04-07T07:25:28;13.83;;;4.60;;
39772;SDS011;25451;51.960;6.250;2023-04-07T07:27:54;10.40;;;4.70;;
39772;SDS011;25451;51.960;6.250;2023-04-07T07:30:20;12.43;;;4.93;;
39772;SDS011;25451;51.960;6.250;2023-04-07T07:32:45;12.15;;;4.70;;
39772;SDS011;25451;51.960;6.250;2023-04-07T07:35:11;12.23;;;4.27;;
39772;SDS011;25451;51.960;6.250;2023-04-07T07:37:36;10.87;;;4.20;;
39772;SDS011;25451;51.960;6.250;2023-04-07T07:40:01;9.37;;;4.07;;
39772;SDS011;25451;51.960;6.250;2023-04-07T07:42:28;11.75;;;4.20;;
39772;SDS011;25451;51.960;6.250;2023-04-07T07:44:55;9.70;;;3.73;;
39772;SDS011;25451;51.960;6.250;2023-04-07T07:47:20;9.67;;;3.67;;
39772;SDS011;25451;51.960;6.250;2023-04-07T07:49:45;9.32;;;3.95;;
39772;SDS011;25451;51.960;6.250;2023-04-07T07:52:11;9.37;;;3.60;;
39772;SDS011;25451;51.960;6.250;2023-04-07T07:54:36;9.53;;;4.03;;
39772;SDS011;25451;51.960;6.250;2023-04-07T07:57:01;8.37;;;3.80;;
39772;SDS011;25451;51.960;6.250;2023-04-07T07:59:27;8.57;;;3.80;;
39772;SDS011;25451;51.960;6.250;2023-04-07T08:01:52;7.43;;;3.50;;
39772;SDS011;25451;51.960;6.250;2023-04-07T08:04:18;7.30;;;3.27;;
39772;SDS011;25451;51.960;6.250;2023-04-07T08:06:43;8.17;;;3.07;;
39772;SDS011;25451;51.960;6.250;2023-04-07T08:09:08;7.50;;;2.53;;
39772;SDS011;25451;51.960;6.250;2023-04-07T08:11:34;9.33;;;2.60;;
39772;SDS011;25451;51.960;6.250;2023-04-07T08:13:59;7.33;;;2.90;;
39772;SDS011;25451;51.960;6.250;2023-04-07T08:16:24;5.65;;;2.60;;
39772;SDS011;25451;51.960;6.250;2023-04-07T08:18:51;7.30;;;2.60;;
39772;SDS011;25451;51.960;6.250;2023-04-07T08:21:16;6.07;;;2.70;;
39772;SDS011;25451;51.960;6.250;2023-04-07T08:23:41;6.80;;;2.60;;
39772;SDS011;25451;51.960;6.250;2023-04-07T08:26:07;4.50;;;2.10;;
39772;SDS011;25451;51.960;6.250;2023-04-07T08:28:32;5.70;;;2.30;;
39772;SDS011;25451;51.960;6.250;2023-04-07T08:30:58;5.90;;;2.20;;
39772;SDS011;25451;51.960;6.250;2023-04-07T08:33:23;4.47;;;2.00;;
39772;SDS011;25451;51.960;6.250;2023-04-07T08:35:50;5.30;;;2.05;;
39772;SDS011;25451;51.960;6.250;2023-04-07T08:38:15;7.60;;;2.10;;
39772;SDS011;25451;51.960;6.250;2023-04-07T08:40:41;3.47;;;1.73;;
39772;SDS011;25451;51.960;6.250;2023-04-07T08:43:08;6.10;;;2.33;;
39772;SDS011;25451;51.960;6.250;2023-04-07T08:45:36;6.60;;;2.10;;
39772;SDS011;25451;51.960;6.250;2023-04-07T08:48:03;5.82;;;2.30;;
39772;SDS011;25451;51.960;6.250;2023-04-07T08:50:38;4.32;;;2.33;;
39772;SDS011;25451;51.960;6.250;2023-04-07T08:53:06;10.55;;;2.53;;
39772;SDS011;25451;51.960;6.250;2023-04-07T08:55:34;5.70;;;2.50;;
39772;SDS011;25451;51.960;6.250;2023-04-07T08:58:00;5.88;;;2.75;;
39772;SDS011;25451;51.960;6.250;2023-04-07T09:00:25;5.47;;;2.90;;
39772;SDS011;25451;51.960;6.250;2023-04-07T09:02:52;6.22;;;3.33;;
39772;SDS011;25451;51.960;6.250;2023-04-07T09:05:17;6.33;;;2.90;;
39772;SDS011;25451;51.960;6.250;2023-04-07T09:07:43;6.03;;;2.97;;
39772;SDS011;25451;51.960;6.250;2023-04-07T09:10:08;7.23;;;2.70;;
39772;SDS011;25451;51.960;6.250;2023-04-07T09:12:34;5.73;;;2.93;;
39772;SDS011;25451;51.960;6.250;2023-04-07T09:14:59;6.28;;;3.05;;
39772;SDS011;25451;51.960;6.250;2023-04-07T09:17:25;6.20;;;2.90;;
39772;SDS011;25451;51.960;6.250;2023-04-07T09:19:52;6.05;;;2.88;;
39772;SDS011;25451;51.960;6.250;2023-04-07T09:22:36;6.43;;;3.00;;
39772;SDS011;25451;51.960;6.250;2023-04-07T09:25:10;7.60;;;2.97;;
39772;SDS011;25451;51.960;6.250;2023-04-07T09:27:40;6.30;;;2.58;;
39772;SDS011;25451;51.960;6.250;2023-04-07T09:30:12;7.47;;;2.78;;
39772;SDS011;25451;51.960;6.250;2023-04-07T09:32:39;7.28;;;2.80;;
39772;SDS011;25451;51.960;6.250;2023-04-07T09:35:05;5.97;;;2.57;;
39772;SDS011;25451;51.960;6.250;2023-04-07T09:37:31;7.55;;;2.78;;
39772;SDS011;25451;51.960;6.250;2023-04-07T09:39:56;5.97;;;2.73;;
39772;SDS011;25451;51.960;6.250;2023-04-07T09:42:21;7.93;;;2.73;;
39772;SDS011;25451;51.960;6.250;2023-04-07T09:44:47;6.17;;;2.70;;
39772;SDS011;25451;51.960;6.250;2023-04-07T09:47:12;8.80;;;2.97;;
39772;SDS011;25451;51.960;6.250;2023-04-07T09:49:51;5.30;;;2.92;;
39772;SDS011;25451;51.960;6.250;2023-04-07T09:52:18;6.00;;;2.67;;
39772;SDS011;25451;51.960;6.250;2023-04-07T09:54:47;5.57;;;2.72;;
39772;SDS011;25451;51.960;6.250;2023-04-07T09:57:13;5.15;;;2.50;;
39772;SDS011;25451;51.960;6.250;2023-04-07T09:59:39;6.47;;;2.60;;
39772;SDS011;25451;51.960;6.250;2023-04-07T10:02:09;5.45;;;2.70;;
39772;SDS011;25451;51.960;6.250;2023-04-07T10:04:35;6.13;;;2.80;;
39772;SDS011;25451;51.960;6.250;2023-04-07T10:07:01;5.38;;;2.72;;
39772;SDS011;25451;51.960;6.250;2023-04-07T10:09:27;6.07;;;2.22;;
39772;SDS011;25451;51.960;6.250;2023-04-07T10:11:54;4.65;;;2.20;;
39772;SDS011;25451;51.960;6.250;2023-04-07T10:14:23;3.75;;;1.80;;
39772;SDS011;25451;51.960;6.250;2023-04-07T10:16:51;3.73;;;1.70;;
39772;SDS011;25451;51.960;6.250;2023-04-07T10:19:17;3.17;;;1.50;;
39772;SDS011;25451;51.960;6.250;2023-04-07T10:21:43;3.25;;;1.25;;
39772;SDS011;25451;51.960;6.250;2023-04-07T10:27:13;3.35;;;1.40;;
39772;SDS011;25451;51.960;6.250;2023-04-07T10:29:42;4.38;;;1.45;;
39772;SDS011;25451;51.960;6.250;2023-04-07T10:32:10;5.30;;;1.70;;
39772;SDS011;25451;51.960;6.250;2023-04-07T10:37:14;2.85;;;1.20;;
39772;SDS011;25451;51.960;6.250;2023-04-07T10:39:42;3.22;;;1.10;;
39772;SDS011;25451;51.960;6.250;2023-04-07T10:45:05;2.92;;;1.40;;
39772;SDS011;25451;51.960;6.250;2023-04-07T10:47:32;2.33;;;1.30;;
39772;SDS011;25451;51.960;6.250;2023-04-07T10:50:13;3.67;;;1.50;;
39772;SDS011;25451;51.960;6.250;2023-04-07T10:52:44;2.80;;;1.50;;
39772;SDS011;25451;51.960;6.250;2023-04-07T11:03:23;3.50;;;1.45;;
39772;SDS011;25451;51.960;6.250;2023-04-07T11:05:49;5.45;;;1.60;;
39772;SDS011;25451;51.960;6.250;2023-04-07T11:08:14;2.80;;;1.60;;
39772;SDS011;25451;51.960;6.250;2023-04-07T11:10:40;2.97;;;1.30;;
39772;SDS011;25451;51.960;6.250;2023-04-07T11:13:11;3.10;;;1.50;;
39772;SDS011;25451;51.960;6.250;2023-04-07T11:15:37;3.40;;;1.70;;
39772;SDS011;25451;51.960;6.250;2023-04-07T11:18:06;3.90;;;1.57;;
39772;SDS011;25451;51.960;6.250;2023-04-07T11:20:50;3.40;;;1.40;;
39772;SDS011;25451;51.960;6.250;2023-04-07T11:23:17;2.72;;;1.50;;
39772;SDS011;25451;51.960;6.250;2023-04-07T11:25:44;4.05;;;1.67;;
39772;SDS011;25451;51.960;6.250;2023-04-07T11:28:12;3.72;;;1.42;;
39772;SDS011;25451;51.960;6.250;2023-04-07T11:30:42;4.00;;;1.80;;
39772;SDS011;25451;51.960;6.250;2023-04-07T11:33:14;3.75;;;1.52;;
39772;SDS011;25451;51.960;6.250;2023-04-07T11:36:00;2.90;;;1.40;;
39772;SDS011;25451;51.960;6.250;2023-04-07T11:38:27;2.80;;;1.40;;
39772;SDS011;25451;51.960;6.250;2023-04-07T11:41:08;3.42;;;1.48;;
39772;SDS011;25451;51.960;6.250;2023-04-07T11:43:37;3.33;;;1.70;;
39772;SDS011;25451;51.960;6.250;2023-04-07T11:46:07;3.60;;;1.80;;
39772;SDS011;25451;51.960;6.250;2023-04-07T11:48:40;5.13;;;2.10;;
39772;SDS011;25451;51.960;6.250;2023-04-07T11:51:14;5.20;;;2.30;;
39772;SDS011;25451;51.960;6.250;2023-04-07T11:53:43;5.40;;;2.85;;
39772;SDS011;25451;51.960;6.250;2023-04-07T11:56:11;6.77;;;2.57;;
39772;SDS011;25451;51.960;6.250;2023-04-07T11:58:51;6.65;;;2.78;;
39772;SDS011;25451;51.960;6.250;2023-04-07T12:01:18;7.15;;;2.65;;
39772;SDS011;25451;51.960;6.250;2023-04-07T12:03:58;6.63;;;2.40;;
39772;SDS011;25451;51.960;6.250;2023-04-07T12:06:32;4.93;;;2.50;;
39772;SDS011;25451;51.960;6.250;2023-04-07T12:09:02;8.70;;;2.50;;
39772;SDS011;25451;51.960;6.250;2023-04-07T12:11:29;6.15;;;2.15;;
39772;SDS011;25451;51.960;6.250;2023-04-07T12:13:55;6.50;;;2.53;;
39772;SDS011;25451;51.960;6.250;2023-04-07T12:16:21;5.90;;;2.47;;
39772;SDS011;25451;51.960;6.250;2023-04-07T12:18:47;4.67;;;2.00;;
39772;SDS011;25451;51.960;6.250;2023-04-07T12:21:13;5.15;;;2.42;;
39772;SDS011;25451;51.960;6.250;2023-04-07T12:23:38;4.97;;;2.10;;
39772;SDS011;25451;51.960;6.250;2023-04-07T12:26:03;4.20;;;2.10;;
39772;SDS011;25451;51.960;6.250;2023-04-07T12:28:29;4.57;;;2.30;;
39772;SDS011;25451;51.960;6.250;2023-04-07T12:30:55;5.65;;;2.10;;
39772;SDS011;25451;51.960;6.250;2023-04-07T12:33:20;4.13;;;2.17;;
39772;SDS011;25451;51.960;6.250;2023-04-07T12:35:45;5.83;;;2.00;;
39772;SDS011;25451;51.960;6.250;2023-04-07T12:38:11;6.90;;;1.80;;
39772;SDS011;25451;51.960;6.250;2023-04-07T12:40:37;4.35;;;1.50;;
39772;SDS011;25451;51.960;6.250;2023-04-07T12:43:02;2.83;;;1.40;;
39772;SDS011;25451;51.960;6.250;2023-04-07T12:45:29;4.43;;;1.33;;
39772;SDS011;25451;51.960;6.250;2023-04-07T12:47:55;2.57;;;1.20;;
39772;SDS011;25451;51.960;6.250;2023-04-07T12:50:20;3.50;;;1.50;;
39772;SDS011;25451;51.960;6.250;2023-04-07T12:52:46;5.30;;;1.70;;
39772;SDS011;25451;51.960;6.250;2023-04-07T12:55:12;2.65;;;1.30;;
39772;SDS011;25451;51.960;6.250;2023-04-07T12:57:38;4.00;;;1.50;;
39772;SDS011;25451;51.960;6.250;2023-04-07T13:00:03;3.83;;;1.48;;
39772;SDS011;25451;51.960;6.250;2023-04-07T13:02:29;3.38;;;1.45;;
39772;SDS011;25451;51.960;6.250;2023-04-07T13:04:57;2.77;;;1.43;;
39772;SDS011;25451;51.960;6.250;2023-04-07T13:07:26;2.88;;;1.50;;
39772;SDS011;25451;51.960;6.250;2023-04-07T13:09:51;2.80;;;1.37;;
39772;SDS011;25451;51.960;6.250;2023-04-07T13:12:18;3.25;;;1.30;;
39772;SDS011;25451;51.960;6.250;2023-04-07T13:14:43;2.43;;;1.37;;
39772;SDS011;25451;51.960;6.250;2023-04-07T13:17:09;4.07;;;1.50;;
39772;SDS011;25451;51.960;6.250;2023-04-07T13:19:35;3.17;;;1.40;;
39772;SDS011;25451;51.960;6.250;2023-04-07T13:22:00;3.10;;;1.67;;
39772;SDS011;25451;51.960;6.250;2023-04-07T13:24:26;2.85;;;1.30;;
39772;SDS011;25451;51.960;6.250;2023-04-07T13:26:52;3.33;;;1.40;;
39772;SDS011;25451;51.960;6.250;2023-04-07T13:29:17;2.90;;;1.40;;
39772;SDS011;25451;51.960;6.250;2023-04-07T13:31:46;2.87;;;1.50;;
39772;SDS011;25451;51.960;6.250;2023-04-07T13:34:12;3.40;;;1.60;;
39772;SDS011;25451;51.960;6.250;2023-04-07T13:36:38;3.27;;;1.90;;
39772;SDS011;25451;51.960;6.250;2023-04-07T13:39:03;3.65;;;1.55;;
39772;SDS011;25451;51.960;6.250;2023-04-07T13:41:29;4.63;;;1.60;;
39772;SDS011;25451;51.960;6.250;2023-04-07T13:43:54;5.00;;;1.90;;
39772;SDS011;25451;51.960;6.250;2023-04-07T13:46:20;4.20;;;2.00;;
39772;SDS011;25451;51.960;6.250;2023-04-07T13:48:45;5.20;;;2.00;;
39772;SDS011;25451;51.960;6.250;2023-04-07T13:51:11;4.03;;;1.87;;
39772;SDS011;25451;51.960;6.250;2023-04-07T13:53:36;5.90;;;1.90;;
39772;SDS011;25451;51.960;6.250;2023-04-07T13:56:02;5.53;;;2.20;;
39772;SDS011;25451;51.960;6.250;2023-04-07T13:58:27;4.83;;;2.00;;
39772;SDS011;25451;51.960;6.250;2023-04-07T14:00:53;4.47;;;2.35;;
39772;SDS011;25451;51.960;6.250;2023-04-07T14:03:20;4.50;;;2.05;;
39772;SDS011;25451;51.960;6.250;2023-04-07T14:05:46;4.03;;;2.28;;
39772;SDS011;25451;51.960;6.250;2023-04-07T14:08:11;4.13;;;2.30;;
39772;SDS011;25451;51.960;6.250;2023-04-07T14:10:37;5.20;;;2.20;;
39772;SDS011;25451;51.960;6.250;2023-04-07T14:13:03;4.93;;;2.40;;
39772;SDS011;25451;51.960;6.250;2023-04-07T14:15:29;4.33;;;1.90;;
39772;SDS011;25451;51.960;6.250;2023-04-07T14:17:54;4.63;;;1.90;;
39772;SDS011;25451;51.960;6.250;2023-04-07T14:20:20;4.83;;;1.77;;
39772;SDS011;25451;51.960;6.250;2023-04-07T14:22:45;3.67;;;1.70;;
39772;SDS011;25451;51.960;6.250;2023-04-07T14:25:10;3.72;;;1.90;;
39772;SDS011;25451;51.960;6.250;2023-04-07T14:27:36;4.82;;;2.05;;
39772;SDS011;25451;51.960;6.250;2023-04-07T14:30:01;5.67;;;2.00;;
39772;SDS011;25451;51.960;6.250;2023-04-07T14:32:27;5.30;;;1.73;;
39772;SDS011;25451;51.960;6.250;2023-04-07T14:34:53;3.33;;;1.50;;
39772;SDS011;25451;51.960;6.250;2023-04-07T14:37:19;3.85;;;1.80;;
39772;SDS011;25451;51.960;6.250;2023-04-07T14:39:48;3.63;;;1.50;;
39772;SDS011;25451;51.960;6.250;2023-04-07T14:42:13;2.97;;;1.43;;
39772;SDS011;25451;51.960;6.250;2023-04-07T14:44:39;3.58;;;1.95;;
39772;SDS011;25451;51.960;6.250;2023-04-07T14:47:04;4.07;;;2.38;;
39772;SDS011;25451;51.960;6.250;2023-04-07T14:49:30;5.13;;;2.90;;
39772;SDS011;25451;51.960;6.250;2023-04-07T14:51:55;4.97;;;3.00;;
39772;SDS011;25451;51.960;6.250;2023-04-07T14:54:21;6.27;;;3.40;;
39772;SDS011;25451;51.960;6.250;2023-04-07T14:56:47;6.15;;;3.40;;
39772;SDS011;25451;51.960;6.250;2023-04-07T14:59:12;6.23;;;3.67;;
39772;SDS011;25451;51.960;6.250;2023-04-07T15:01:37;6.10;;;3.67;;
39772;SDS011;25451;51.960;6.250;2023-04-07T15:04:03;5.00;;;2.88;;